EW7939 Weather Reports


Display with metric or nautical units.
time (UTC)temp
F
wind
direction
speed
MPH
gust
MPH
rain 1hr
in
rain 24hr
in
rain mn
in
humidity
%
barometer
mb
20200927161729 71 247 0.0 0.0 0.00 0.00 0.00 85 1006.8
20200927160209 70 273 1.0 6.0 0.00 0.00 0.00 86 1007.1
20200927154734 70 292 3.0 7.0 0.00 0.00 0.00 85 1007.2
20200927153124 70 292 4.0 8.0 0.00 0.00 0.00 85 1007.2
20200927151635 70 248 2.0 8.0 0.00 0.00 0.00 85 1007.0
20200927150112 70 276 4.0 9.0 0.00 0.00 0.00 87 1006.9
20200927144622 69 268 5.0 9.0 0.00 0.00 0.00 87 1006.9
20200927143043 68 219 3.0 7.0 0.00 0.00 0.00 88 1006.8
20200927141611 68 247 4.0 8.0 0.00 0.00 0.00 88 1007.0
20200927140055 68 281 4.0 7.0 0.00 0.00 0.00 89 1006.7
20200927134555 67 246 2.0 7.0 0.00 0.00 0.00 90 1006.7
20200927133048 66 248 4.0 8.0 0.00 0.00 0.00 90 1006.8
20200927130058 66 245 3.0 7.0 0.00 0.00 0.00 91 1006.8
20200927124543 65 235 2.0 7.0 0.00 0.00 0.00 91 1006.8
20200927123036 65 249 0.0 0.0 0.00 0.00 0.00 91 1006.8
20200927121553 65 250 0.0 0.0 0.00 0.00 0.00 91 1006.8
20200927120105 65 234 0.0 0.0 0.00 0.00 0.00 90 1006.9
20200927114547 65 237 0.0 3.0 0.00 0.00 0.00 90 1006.8
20200927113048 65 248 2.0 5.0 0.00 0.00 0.00 90 1006.6
20200927111533 65 228 0.0 0.0 0.00 0.00 0.00 90 1006.5
20200927110024 64 250 0.0 0.0 0.00 0.00 0.00 89 1006.4
20200927104559 65 244 0.0 0.0 0.00 0.00 0.00 88 1006.4
20200927103050 65 244 0.0 1.0 0.00 0.00 0.00 88 1006.3
20200927101528 65 268 0.0 0.0 0.00 0.00 0.00 88 1006.3
20200927100041 65 221 0.0 4.0 0.00 0.00 0.00 87 1006.2
20200927094602 65 227 2.0 5.0 0.00 0.00 0.00 88 1006.4
20200927093034 65 294 0.0 0.0 0.00 0.00 0.00 87 1006.4
20200927091523 65 238 0.0 4.0 0.00 0.00 0.00 86 1006.0
20200927090017 65 235 1.0 4.0 0.00 0.00 0.00 84 1005.8
20200927084804 66 250 0.0 2.0 0.00 0.00 0.00 83 1005.8
20200927083138 66 226 0.0 4.0 0.00 0.00 0.00 83 1005.8
20200927081718 66 163 2.0 4.0 0.00 0.00 0.00 82 1005.5
20200927080203 67 236 2.0 6.0 0.00 0.00 0.00 82 1005.5
20200927074607 67 247 3.0 7.0 0.00 0.00 0.00 81 1005.4
20200927073218 67 208 3.0 8.0 0.00 0.00 0.00 80 1005.4
20200927071618 67 254 3.0 10.0 0.00 0.00 0.00 80 1005.1
20200927070112 67 250 3.0 8.0 0.00 0.00 0.00 80 1005.0
20200927064620 67 244 3.0 8.0 0.00 0.00 0.00 79 1004.9
20200927063211 67 141 0.0 6.0 0.00 0.00 0.00 79 1004.8
20200927061550 67 222 1.0 6.0 0.00 0.00 0.00 78 1005.0
20200927060121 67 223 2.0 6.0 0.00 0.00 0.00 78 1004.8
20200927054650 67 254 1.0 4.0 0.00 0.00 0.00 79 1005.0
20200927053127 67 227 2.0 5.0 0.00 0.00 0.00 79 1004.9
20200927051611 67 236 2.0 6.0 0.00 0.00 0.00 79 1004.9
20200927050054 67 254 0.0 0.0 0.00 0.00 0.00 78 1004.8
20200927044559 68 259 0.0 0.0 0.00 0.00 0.00 76 1005.0
20200927043144 69 251 0.0 3.0 0.00 0.00 0.00 74 1004.9
20200927041541 69 246 2.0 5.0 0.00 0.00 0.00 72 1004.9
20200927040123 70 260 3.0 7.0 0.00 0.00 0.00 70 1005.0
20200927034618 71 249 3.0 8.0 0.00 0.00 0.00 70 1004.7
20200927033102 71 244 4.0 13.0 0.00 0.00 0.00 71 1004.3
20200927031537 71 119 1.0 9.0 0.00 0.00 0.00 72 1004.0
20200927030109 71 256 1.0 7.0 0.00 0.00 0.00 71 1004.0
20200927024619 70 215 1.0 8.0 0.00 0.00 0.00 67 1003.9
20200927023035 71 258 0.0 4.0 0.00 0.00 0.00 66 1003.9
20200927021542 71 247 0.0 2.0 0.00 0.00 0.00 66 1003.8
20200927020035 71 272 0.0 1.0 0.00 0.00 0.00 66 1003.7
20200927014540 72 62 1.0 5.0 0.00 0.00 0.00 65 1003.8
20200927013113 73 130 0.0 0.0 0.00 0.00 0.00 65 1003.7
20200927011551 73 144 0.0 0.0 0.00 0.00 0.00 65 1003.5
20200927010100 74 121 0.0 3.0 0.00 0.00 0.00 65 1003.4
20200927004604 75 198 0.0 4.0 0.00 0.00 0.00 66 1003.3
20200927003030 76 240 0.0 0.0 0.00 0.00 0.00 65 1003.0
20200927001541 78 242 0.0 0.0 0.00 0.00 0.00 63 1002.9
20200927000145 80 214 0.0 0.0 0.00 0.00 0.00 61 1003.0
20200926234638 81 214 0.0 0.0 0.00 0.00 0.00 58 1002.8
20200926233026 83 159 0.0 2.0 0.00 0.00 0.00 57 1002.6
20200926231533 84 166 0.0 2.0 0.00 0.00 0.00 55 1002.5
20200926230038 85 265 1.0 4.0 0.00 0.00 0.00 54 1002.5
20200926224555 85 160 0.0 7.0 0.00 0.00 0.00 54 1002.5
20200926223032 85 121 2.0 7.0 0.00 0.00 0.00 50 1002.4
20200926221530 86 134 3.0 11.0 0.00 0.00 0.00 49 1002.4
20200926220100 87 213 2.0 9.0 0.00 0.00 0.00 52 1002.7
20200926214535 88 70 3.0 11.0 0.00 0.00 0.00 49 1002.7
20200926213022 88 135 2.0 10.0 0.00 0.00 0.00 49 1002.9
20200926211617 88 63 3.0 9.0 0.00 0.00 0.00 51 1003.1
20200926210036 89 267 4.0 12.0 0.00 0.00 0.00 52 1003.1
20200926204529 88 75 4.0 9.0 0.00 0.00 0.00 51 1003.3
20200926203021 88 156 5.0 12.0 0.00 0.00 0.00 52 1003.3
20200926200202 88 233 5.0 13.0 0.00 0.00 0.00 53 1003.5
20200926194632 87 217 3.0 12.0 0.00 0.00 0.00 56 1003.7
20200926193121 86 182 3.0 9.0 0.00 0.00 0.00 57 1003.9
20200926191621 86 223 4.0 11.0 0.00 0.00 0.00 55 1004.1
20200926190127 86 118 4.0 14.0 0.00 0.00 0.00 54 1004.3
20200926184556 85 63 3.0 13.0 0.00 0.00 0.00 59 1004.5
20200926183108 84 330 5.0 12.0 0.00 0.00 0.00 59 1004.8
20200926181546 83 316 5.0 12.0 0.00 0.00 0.00 58 1005.1
20200926180031 82 211 4.0 11.0 0.00 0.00 0.00 61 1005.5
20200926174558 82 189 3.0 9.0 0.00 0.00 0.00 64 1005.7
20200926173029 81 184 3.0 9.0 0.00 0.00 0.00 64 1005.9
20200926171520 80 59 4.0 14.0 0.00 0.00 0.00 66 1006.1
20200926170037 79 196 2.0 10.0 0.00 0.00 0.00 69 1006.3
20200926164534 78 294 3.0 10.0 0.00 0.00 0.00 71 1006.5
20200926163019 77 137 4.0 12.0 0.00 0.00 0.00 72 1006.7